ADDS METAR Data INFO
IDs: Format: Raw Decoded Include TAF

Data at: 2006 UTC 19 Oct 2017

KM25 191955Z AUTO 00000KT 10SM CLR 23/10 A3022 RMK AO2 PWINO
KM25 191935Z AUTO 00000KT 10SM CLR 23/10 A3022 RMK AO2 PWINO
KM25 191915Z AUTO 21003KT 10SM CLR 23/10 A3023 RMK AO2 PWINO
KM25 191855Z AUTO 21005KT 10SM CLR 23/10 A3023 RMK AO2 PWINO
KM25 191835Z AUTO 20006KT 10SM CLR 23/10 A3024 RMK AO2 PWINO
KM25 191815Z AUTO 22004KT 10SM CLR 22/09 A3025 RMK AO2 PWINO
KM25 191755Z AUTO 17006KT 10SM CLR 22/10 A3026 RMK AO2 PWINO
KM25 191735Z AUTO 23006KT 10SM CLR 22/10 A3027 RMK AO2 PWINO
KM25 191715Z AUTO 21006KT 10SM CLR 22/09 A3028 RMK AO2 PWINO
KM25 191655Z AUTO 23006KT 10SM CLR 21/10 A3029 RMK AO2 PWINO
KM25 191635Z AUTO 21008KT 10SM CLR 21/09 A3029 RMK AO2 PWINO
KM25 191615Z AUTO 23008KT 10SM CLR 20/08 A3029 RMK AO2 PWINO
KM25 191555Z AUTO 23008KT 10SM CLR 20/08 A3029 RMK AO2
KM25 191535Z AUTO 23008KT 10SM CLR 19/08 A3029 RMK AO2 PWINO
KM25 191515Z AUTO 23008KT 10SM CLR 18/08 A3030 RMK AO2 PWINO
KM25 191455Z AUTO 22008KT 10SM CLR 17/09 A3029 RMK AO2 PWINO
KM25 191435Z AUTO 21008KT 10SM CLR 16/09 A3029 RMK AO2 PWINO
KM25 191415Z AUTO 19006KT 10SM CLR 15/09 A3028 RMK AO2 PWINO
KM25 191355Z AUTO 21005KT 10SM CLR 14/08 A3028 RMK AO2
KM25 191335Z AUTO 20005KT 10SM CLR 13/08 A3028 RMK AO2
KM25 191315Z AUTO 19005KT 10SM CLR 12/08 A3027 RMK AO2
KM25 191255Z AUTO 18003KT 10SM CLR 11/08 A3026 RMK AO2
KM25 191235Z AUTO 17003KT 10SM CLR 10/08 A3026 RMK AO2
KM25 191215Z AUTO 17004KT 10SM CLR 10/07 A3026 RMK AO2 PWINO
KM25 191155Z AUTO 19004KT 10SM CLR 11/07 A3025 RMK AO2 PWINO
KM25 191135Z AUTO 19003KT 10SM CLR 10/07 A3025 RMK AO2
KM25 191115Z AUTO 18003KT 10SM CLR 10/07 A3025 RMK AO2
KM25 191055Z AUTO 00000KT 10SM CLR 11/07 A3024 RMK AO2
KM25 191035Z AUTO 19004KT 10SM CLR 12/07 A3023 RMK AO2
KM25 191015Z AUTO 19005KT 10SM CLR 12/08 A3023 RMK AO2
KM25 190955Z AUTO 20005KT 10SM CLR 12/08 A3022 RMK AO2
KM25 190935Z AUTO 19004KT 10SM CLR 12/08 A3022 RMK AO2
KM25 190915Z AUTO 19005KT 10SM CLR 12/08 A3021 RMK AO2
KM25 190855Z AUTO 19006KT 10SM CLR 12/08 A3021 RMK AO2
KM25 190835Z AUTO 19004KT 10SM CLR 11/08 A3021 RMK AO2
KM25 190815Z AUTO 00000KT 10SM CLR 11/08 A3021 RMK AO2
KM25 190755Z AUTO 18004KT 10SM CLR 11/08 A3021 RMK AO2
KM25 190735Z AUTO 19004KT 10SM CLR 11/08 A3021 RMK AO2
KM25 190715Z AUTO 20004KT 10SM CLR 12/08 A3021 RMK AO2
KM25 190655Z AUTO 19003KT 10SM CLR 11/08 A3021 RMK AO2
KM25 190635Z AUTO 18004KT 10SM CLR 11/08 A3020 RMK AO2
KM25 190615Z AUTO 00000KT 10SM CLR 11/08 A3021 RMK AO2
KM25 190555Z AUTO 00000KT 10SM CLR 12/08 A3020 RMK AO2
KM25 190535Z AUTO 18003KT 10SM CLR 12/08 A3021 RMK AO2
KM25 190515Z AUTO 17004KT 10SM CLR 12/08 A3021 RMK AO2
KM25 190455Z AUTO 20003KT 10SM CLR 13/08 A3020 RMK AO2
KM25 190435Z AUTO 19005KT 10SM CLR 13/08 A3020 RMK AO2
KM25 190415Z AUTO 19005KT 10SM CLR 13/08 A3020 RMK AO2
KM25 190355Z AUTO 18003KT 10SM CLR 12/08 A3021 RMK AO2
KM25 190335Z AUTO 18004KT 10SM CLR 11/08 A3021 RMK AO2
KM25 190315Z AUTO 19003KT 10SM CLR 10/08 A3021 RMK AO2
KM25 190255Z AUTO 00000KT 10SM CLR 10/08 A3021 RMK AO2
KM25 190235Z AUTO 00000KT 10SM CLR 12/08 A3021 RMK AO2
KM25 190215Z AUTO 00000KT 10SM CLR 12/08 A3021 RMK AO2
KM25 190155Z AUTO 00000KT 10SM CLR 12/08 A3021 RMK AO2
KM25 190135Z AUTO 00000KT 10SM CLR 14/08 A3020 RMK AO2
KM25 190115Z AUTO 16003KT 10SM CLR 13/08 A3020 RMK AO2
KM25 190055Z AUTO 16003KT 10SM CLR 15/08 A3020 RMK AO2
KM25 190035Z AUTO 15005KT 10SM CLR 15/08 A3020 RMK AO2
KM25 190015Z AUTO 16003KT 10SM CLR 13/09 A3020 RMK AO2
KM25 182355Z AUTO 00000KT 10SM CLR 15/09 A3020 RMK AO2
KM25 182335Z AUTO 00000KT 10SM CLR 17/08 A3020 RMK AO2
KM25 182315Z AUTO 18003KT 10SM CLR 18/08 A3020 RMK AO2 PWINO
KM25 182255Z AUTO 18004KT 10SM CLR 20/08 A3020 RMK AO2 PWINO
KM25 182235Z AUTO 18006KT 10SM CLR 20/07 A3019 RMK AO2 PWINO
KM25 182215Z AUTO 19007KT 10SM CLR 21/08 A3019 RMK AO2 PWINO
KM25 182155Z AUTO 18006KT 10SM CLR 21/08 A3019 RMK AO2 PWINO
KM25 182135Z AUTO 16009KT 10SM CLR 21/08 A3019 RMK AO2 PWINO
KM25 182115Z AUTO 16006KT 10SM CLR 21/08 A3019 RMK AO2 PWINO
KM25 182055Z AUTO 16004KT 10SM CLR 22/08 A3019 RMK AO2 PWINO
KM25 182035Z AUTO 16008KT 10SM CLR 22/08 A3020 RMK AO2 PWINO
KM25 182015Z AUTO 13007KT 10SM CLR 22/09 A3020 RMK AO2 PWINO
KM25 181955Z AUTO 16007KT 10SM CLR 22/09 A3021 RMK AO2 PWINO
KM25 181935Z AUTO 17006KT 10SM CLR 21/09 A3022 RMK AO2 PWINO
KM25 181915Z AUTO 18007KT 10SM CLR 21/08 A3022 RMK AO2 PWINO
KM25 181855Z AUTO 19004KT 10SM CLR 21/08 A3023 RMK AO2 PWINO
KM25 181835Z AUTO 22008KT 10SM CLR 21/08 A3024 RMK AO2 PWINO
KM25 181815Z AUTO 23003KT 10SM CLR 21/08 A3025 RMK AO2 PWINO
KM25 181755Z AUTO 18008KT 150V230 10SM CLR 21/09 A3026 RMK AO2 PWINO
KM25 181735Z AUTO 19007KT 150V220 10SM CLR 20/09 A3027 RMK AO2 PWINO
KM25 181715Z AUTO 21008KT 10SM CLR 20/09 A3028 RMK AO2 PWINO
KM25 181655Z AUTO 24009KT 10SM CLR 20/09 A3029 RMK AO2 PWINO
KM25 181635Z AUTO 19006KT 10SM CLR 19/09 A3030 RMK AO2 PWINO
KM25 181615Z AUTO 18007KT 10SM CLR 18/09 A3030 RMK AO2 PWINO
KM25 181555Z AUTO 21006KT 10SM CLR 18/09 A3031 RMK AO2 PWINO
KM25 181535Z AUTO 20005KT 10SM CLR 17/08 A3031 RMK AO2 PWINO
KM25 181515Z AUTO 18007KT 10SM CLR 17/08 A3031 RMK AO2 PWINO
KM25 181455Z AUTO 20006KT 10SM CLR 16/09 A3031 RMK AO2 PWINO
KM25 181435Z AUTO 20005KT 10SM CLR 15/08 A3030 RMK AO2 PWINO
KM25 181415Z AUTO 19007KT 10SM CLR 13/08 A3030 RMK AO2 PWINO
KM25 181355Z AUTO 19004KT 10SM CLR 13/08 A3030 RMK AO2 PWINO
KM25 181335Z AUTO 17003KT 10SM CLR 12/08 A3029 RMK AO2 PWINO
KM25 181315Z AUTO 17005KT 10SM CLR 10/07 A3029 RMK AO2
KM25 181255Z AUTO 15003KT 10SM CLR 08/07 A3028 RMK AO2
KM25 181235Z AUTO 15003KT 10SM CLR 06/06 A3028 RMK AO2
KM25 181215Z AUTO 00000KT 10SM CLR 07/06 A3027 RMK AO2
KM25 181155Z AUTO 00000KT 10SM CLR 07/06 A3027 RMK AO2
KM25 181135Z AUTO 00000KT 10SM CLR 06/05 A3027 RMK AO2
KM25 181115Z AUTO 17003KT 10SM CLR 07/06 A3027 RMK AO2
KM25 181055Z AUTO 17003KT 10SM CLR 06/05 A3027 RMK AO2
KM25 181035Z AUTO 16003KT 10SM CLR 05/05 A3026 RMK AO2
KM25 181015Z AUTO 15004KT 7SM CLR 05/05 A3026 RMK AO2
KM25 180955Z AUTO 00000KT 10SM CLR 05/05 A3026 RMK AO2
KM25 180935Z AUTO 00000KT 10SM CLR 06/05 A3025 RMK AO2
KM25 180915Z AUTO 00000KT 10SM CLR 06/05 A3025 RMK AO2
KM25 180855Z AUTO 00000KT 10SM CLR 06/05 A3025 RMK AO2
KM25 180835Z AUTO 00000KT 10SM CLR 06/06 A3025 RMK AO2
KM25 180815Z AUTO 00000KT 10SM CLR 06/05 A3025 RMK AO2